Skip Navigation Links
NOAA logo - Click to go to the NOAA homepage
NOAA's National Weather Service
Alaska Aviation Weather Unit
  NWS logo - Click to go to the NWS homepage
Left Navbar Graphic     10 AKDT = 18 GMT

   
NOAA is celebrating 200 years of science, service, and stewardship. Visit the NOAA 200th celebration Web site to learn more.
USA.gov is the U.S. Government's official Web portal to all Federal, state and local government Web resources and services.
Facebook
NWS on Facebook

Important Change Regarding the AAWU Web Presence

 

Over the last several months, the AAWU has been working to navigate its webpages to a nationally supported server. Security, as well as other needs, have necessitated the change.  We have been given an extension for the site changeover while we diligently work at addressing feedback received. As of July 14, 2017, aawu.arh.noaa.gov will be discontinued. The new AAWU web address is weather.gov/aawu. It is now live and will run in-parallel with the old site until it is discontinued on July 14, 2017. Please continue to send any feedback or questions regarding the new webpages to nws.ar.aawu.webauthors@noaa.gov.  Thank you for your patience during this time of transition.
AAWU Home :: Display TAF Add Bookmark
SPECI PAPO 261219Z AUTO 08006KT 1 3/4SM BR CLR M01/M02 A3016 RMK AO2
     FZRANO=

SPECI PAPO 261232Z AUTO 08006KT 4SM BR CLR M01/M03 A3016 RMK AO2
     FZRANO=

METAR PAPO 261256Z AUTO 08007KT 2SM BR CLR M01/M03 A3016 RMK AO2 SLP212
     T10111028 FZRANO=

SPECI PAPO 261304Z AUTO 08007KT 1 1/4SM BR CLR M01/M03 A3016 RMK AO2
     FZRANO=

SPECI PAPO 261316Z AUTO 08006KT 3SM BR CLR M01/M03 A3016 RMK AO2
     FZRANO=

METAR PAPO 261556Z AUTO 10005KT 10SM CLR M01/M02 A3014 RMK AO2 SLP206
     T10111022 FZRANO=

METAR PAPO 261656Z AUTO 11006KT 10SM CLR M01/M02 A3014 RMK AO2 SLP205
     T10111022 FZRANO=

METAR PAPO 261756Z AUTO 10006KT 10SM CLR M01/M02 A3013 RMK AO2
 SLP201 T10111022 10006 21017 56009 FZRANO=


NOAA's National Weather Service
Alaska Aviation Weather Unit
6930 Sand Lake Road
Anchorage, AK 99502-1845
Disclaimer
Credits
Glossary
Privacy Policy
About Us
Career Opportunities
Contact AAWU Internet Services Site last modified: April, 17th 2012